Terminal Aerodrome Forecast
Issued by NWS Miami, FL

Home | Current Version | Previous Version | Text Only | Print | Product List | Glossary On
Versions: 1 2 3 4 5 6 7 8 9 10 11 12 13 14 15 16 17 18 19 20 21 22 23 24 25 26 27 28 29
000
FTUS42 KMFL 222109 AAA
TAFFLL
TAF AMD
KFLL 222109Z 2221/2324 12015KT P6SM SCT025 BKN045 BKN200
     FM222200 11012KT P6SM VCSH SCT025 BKN035
     FM230600 11010KT P6SM VCSH SCT020 BKN035
     FM231400 13012KT P6SM VCSH SCT030=

USA.gov is the U.S. government's official web portal to all federal, state and local government web resources and services.